Time;durP1;ratioP1;P1;durP2;ratioP2;P2;SDS_P1;SDS_P2;PMS_P1;PMS_P2;Temp;Humidity;BMP_temperature;BMP_pressure;BME280_temperature;BME280_humidity;BME280_pressure;Samples;Min_cycle;Max_cycle;Signal;HPM_P1;HPM_P2
2023/12/11 00:00:30;;;;;;;7.43;2.42;;;;;;;12.65;100.00;98526.50;5093424;28;20129;-48
2023/12/11 00:02:55;;;;;;;5.03;1.70;;;;;;;12.62;100.00;98545.41;5093419;28;20032;-48
2023/12/11 00:05:21;;;;;;;4.40;1.13;;;;;;;12.57;100.00;98537.31;5091752;28;20068;-48
2023/12/11 00:07:47;;;;;;;4.80;0.88;;;;;;;12.62;100.00;98536.69;5093110;28;20406;-48
2023/12/11 00:10:14;;;;;;;10.10;2.63;;;;;;;12.51;100.00;98553.97;5091913;28;20035;-48
2023/12/11 00:12:40;;;;;;;5.53;1.48;;;;;;;12.64;100.00;98547.81;5091608;28;20020;-48
2023/12/11 00:15:06;;;;;;;8.00;1.85;;;;;;;12.64;100.00;98543.34;5092861;28;20595;-48
2023/12/11 00:17:32;;;;;;;5.85;1.52;;;;;;;12.81;100.00;98540.94;5090614;28;20040;-48
2023/12/11 00:19:58;;;;;;;10.27;2.22;;;;;;;12.90;100.00;98542.28;5091513;28;20044;-48
2023/12/11 00:22:24;;;;;;;5.78;1.70;;;;;;;13.07;100.00;98536.44;5092798;28;20020;-48
2023/12/11 00:24:50;;;;;;;5.78;1.48;;;;;;;13.17;100.00;98528.81;5092752;28;20059;-48
2023/12/11 00:27:16;;;;;;;4.80;1.20;;;;;;;13.15;100.00;98520.31;5091333;28;20024;-48
2023/12/11 00:29:42;;;;;;;4.95;1.27;;;;;;;13.11;100.00;98517.31;5092647;28;20133;-48
2023/12/11 00:32:08;;;;;;;3.13;1.00;;;;;;;13.02;100.00;98509.94;5091484;28;20081;-48
2023/12/11 00:34:34;;;;;;;5.40;1.20;;;;;;;12.97;100.00;98510.59;5092284;28;20089;-48
2023/12/11 00:37:00;;;;;;;4.55;1.27;;;;;;;12.94;100.00;98516.31;5092516;28;20059;-48
2023/12/11 00:39:26;;;;;;;6.00;1.20;;;;;;;13.03;100.00;98508.91;5092713;28;20449;-48
2023/12/11 00:41:52;;;;;;;5.22;1.48;;;;;;;13.14;100.00;98513.47;5092425;28;20060;-48
2023/12/11 00:44:18;;;;;;;2.97;1.10;;;;;;;13.52;100.00;98509.75;5092389;28;20502;-48
2023/12/11 00:46:43;;;;;;;4.63;1.00;;;;;;;13.53;100.00;98521.91;5092362;28;20028;-48
2023/12/11 00:49:09;;;;;;;4.72;1.38;;;;;;;13.34;100.00;98506.13;5092306;28;20013;-48
2023/12/11 00:51:35;;;;;;;5.45;1.27;;;;;;;13.28;100.00;98503.53;5091143;28;20032;-48
2023/12/11 00:54:00;;;;;;;2.58;1.10;;;;;;;13.31;100.00;98492.59;5092525;28;20020;-48
2023/12/11 00:56:26;;;;;;;5.55;1.10;;;;;;;13.28;100.00;98480.63;5091113;28;20485;-48
2023/12/11 00:58:52;;;;;;;2.33;1.13;;;;;;;13.27;100.00;98471.09;5091111;28;20111;-48
2023/12/11 01:01:17;;;;;;;6.28;1.20;;;;;;;13.29;99.61;98484.91;5090739;28;20032;-48
2023/12/11 01:03:43;;;;;;;4.50;1.00;;;;;;;13.25;95.84;98470.53;5092034;28;20486;-48
2023/12/11 01:06:09;;;;;;;6.85;1.52;;;;;;;13.29;98.84;98461.19;5091010;28;20050;-48
2023/12/11 01:08:41;;;;;;;2.80;0.98;;;;;;;13.22;91.63;98460.44;5090990;28;20017;-48
2023/12/11 01:11:06;;;;;;;3.42;1.13;;;;;;;13.23;95.99;98453.34;5092496;28;20504;-48
2023/12/11 01:13:32;;;;;;;5.32;1.23;;;;;;;13.25;100.00;98454.72;5073814;28;20036;-48
2023/12/11 01:15:58;;;;;;;3.70;1.30;;;;;;;13.25;100.00;98443.38;5090895;28;20078;-48
2023/12/11 01:18:25;;;;;;;3.45;0.90;;;;;;;13.27;99.07;98451.88;5092176;28;20111;-48
2023/12/11 01:20:52;;;;;;;3.63;0.95;;;;;;;13.33;94.77;98420.16;5091827;28;20024;-48
2023/12/11 01:23:18;;;;;;;5.13;1.10;;;;;;;13.45;91.22;98414.94;5090475;28;20032;-48
2023/12/11 01:25:43;;;;;;;4.88;1.48;;;;;;;13.41;82.77;98421.69;5092167;28;20148;-49
2023/12/11 01:28:09;;;;;;;5.05;1.42;;;;;;;13.45;87.52;98378.03;5092475;28;20499;-48
2023/12/11 01:30:35;;;;;;;6.25;1.52;;;;;;;13.53;84.39;98398.78;5094805;28;20052;-48
2023/12/11 01:33:04;;;;;;;6.60;1.52;;;;;;;13.60;86.04;98417.13;5095957;28;20028;-48
2023/12/11 01:35:33;;;;;;;4.90;1.35;;;;;;;13.52;86.74;98396.38;5094513;28;20040;-48
2023/12/11 01:37:59;;;;;;;2.00;0.82;;;;;;;13.43;78.76;98406.44;5095948;28;20032;-48
2023/12/11 01:40:25;;;;;;;3.10;1.10;;;;;;;13.34;81.76;98399.88;5094504;28;20031;-48
2023/12/11 01:42:51;;;;;;;4.28;1.15;;;;;;;13.29;80.45;98408.47;5094833;28;20024;-48
2023/12/11 01:45:17;;;;;;;5.38;1.10;;;;;;;13.27;81.22;98404.44;5095782;28;20013;-48
2023/12/11 01:47:42;;;;;;;3.47;1.23;;;;;;;13.32;83.03;98405.41;5094458;28;20499;-48
2023/12/11 01:50:08;;;;;;;4.93;1.40;;;;;;;13.28;83.59;98406.84;5094370;28;20020;-48
2023/12/11 01:52:35;;;;;;;5.15;1.50;;;;;;;13.28;83.52;98422.66;5094295;28;20073;-48
2023/12/11 01:55:03;;;;;;;4.90;1.40;;;;;;;13.34;87.48;98428.88;5094285;28;20024;-48
2023/12/11 01:57:30;;;;;;;4.47;1.35;;;;;;;13.41;85.11;98421.69;5077500;28;20076;-48
2023/12/11 01:59:56;;;;;;;3.75;1.20;;;;;;;13.43;84.62;98424.09;5095627;28;20012;-48
2023/12/11 02:02:22;;;;;;;6.88;2.25;;;;;;;13.41;82.13;98405.06;5094112;28;20118;-48
2023/12/11 02:04:49;;;;;;;11.18;2.10;;;;;;;13.41;83.29;98410.34;5095406;28;20158;-48
2023/12/11 02:07:16;;;;;;;6.38;1.90;;;;;;;13.46;83.68;98407.81;5095341;28;20483;-48
2023/12/11 02:09:42;;;;;;;3.53;1.15;;;;;;;13.43;83.04;98395.09;5095366;28;20028;-48
2023/12/11 02:12:07;;;;;;;7.15;2.03;;;;;;;13.44;86.46;98394.06;5076935;28;20424;-48
2023/12/11 02:14:33;;;;;;;6.70;1.10;;;;;;;13.38;83.43;98416.84;5093894;28;20035;-48
2023/12/11 02:16:59;;;;;;;5.82;2.75;;;;;;;13.33;83.33;98406.19;5076984;28;20038;-48
2023/12/11 02:19:25;;;;;;;6.45;1.88;;;;;;;13.41;85.89;98412.97;5094102;28;20432;-48
2023/12/11 02:21:52;;;;;;;4.80;1.45;;;;;;;13.48;86.46;98426.84;5093829;28;20057;-48
2023/12/11 02:24:22;;;;;;;5.13;1.20;;;;;;;13.43;84.81;98422.25;5093760;28;20028;-48
2023/12/11 02:26:48;;;;;;;9.88;4.03;;;;;;;13.41;86.94;98412.97;5094037;28;20039;-48
2023/12/11 02:29:14;;;;;;;3.67;1.45;;;;;;;13.46;87.46;98406.00;5093653;28;20016;-48
2023/12/11 02:31:40;;;;;;;5.03;1.63;;;;;;;13.54;88.61;98416.22;5093630;28;20054;-48
2023/12/11 02:34:07;;;;;;;6.00;1.40;;;;;;;13.42;86.28;98391.69;5093260;28;20131;-48
2023/12/11 02:36:33;;;;;;;6.22;4.43;;;;;;;12.97;87.61;98419.19;5093575;28;20024;-48
2023/12/11 02:38:58;;;;;;;7.53;4.20;;;;;;;12.45;89.38;98397.72;5094780;28;20027;-46
2023/12/11 02:41:25;;;;;;;3.85;2.50;;;;;;;12.07;93.33;98395.28;5093636;28;20078;-47
2023/12/11 02:43:50;;;;;;;5.43;1.35;;;;;;;11.99;96.90;98385.84;5093367;28;20142;-46
2023/12/11 02:46:16;;;;;;;7.47;3.20;;;;;;;11.82;98.29;98374.25;5094593;28;20102;-47
2023/12/11 02:48:42;;;;;;;5.53;1.70;;;;;;;11.75;100.00;98372.50;5093312;28;20032;-47
2023/12/11 02:51:08;;;;;;;8.82;3.30;;;;;;;11.68;100.00;98378.81;5093238;28;20032;-47
2023/12/11 02:53:33;;;;;;;6.07;1.38;;;;;;;11.72;100.00;98375.53;5093151;28;20054;-48
2023/12/11 02:55:59;;;;;;;42.15;38.00;;;;;;;11.82;100.00;98374.25;5093149;28;20067;-48
2023/12/11 02:58:25;;;;;;;27.20;24.48;;;;;;;11.93;100.00;98368.31;5094382;28;20413;-48
2023/12/11 03:00:50;;;;;;;19.60;17.60;;;;;;;12.01;100.00;98354.88;5093058;28;20027;-48
2023/12/11 03:03:16;;;;;;;10.20;4.30;;;;;;;12.16;100.00;98344.00;5094369;28;20040;-48
2023/12/11 03:05:42;;;;;;;5.15;2.67;;;;;;;12.33;100.00;98355.53;5094260;28;20361;-49
2023/12/11 03:08:07;;;;;;;8.55;3.75;;;;;;;12.40;100.00;98363.38;5094248;28;20028;-48
2023/12/11 03:10:34;;;;;;;5.57;2.67;;;;;;;12.42;100.00;98355.28;5094228;28;20103;-48
2023/12/11 03:12:59;;;;;;;6.90;1.70;;;;;;;12.46;100.00;98345.91;5094073;28;20031;-48
2023/12/11 03:15:25;;;;;;;5.68;2.53;;;;;;;12.54;100.00;98342.97;5093002;28;20028;-48
2023/12/11 03:17:51;;;;;;;2.60;1.08;;;;;;;12.65;100.00;98362.47;5094060;28;20028;-48
2023/12/11 03:20:16;;;;;;;6.78;1.25;;;;;;;12.69;100.00;98368.91;5093976;28;20019;-48
2023/12/11 03:22:42;;;;;;;3.63;1.38;;;;;;;12.76;100.00;98356.47;5092753;28;20069;-48
2023/12/11 03:25:08;;;;;;;4.45;1.35;;;;;;;12.82;100.00;98352.97;5092504;28;20375;-49
2023/12/11 03:27:34;;;;;;;6.45;1.80;;;;;;;12.91;100.00;98351.59;5092537;28;20030;-48
2023/12/11 03:30:00;;;;;;;5.38;1.20;;;;;;;12.76;98.29;98367.81;5092566;28;20090;-47
2023/12/11 03:32:25;;;;;;;5.97;1.60;;;;;;;12.45;98.72;98360.09;5092482;28;20459;-47
2023/12/11 03:34:51;;;;;;;4.22;1.15;;;;;;;12.13;100.00;98357.59;5092162;28;20143;-47
2023/12/11 03:37:17;;;;;;;3.80;1.00;;;;;;;11.90;100.00;98342.47;5093670;28;20024;-46
2023/12/11 03:39:43;;;;;;;9.57;1.58;;;;;;;11.71;100.00;98357.34;5092278;28;20028;-46
2023/12/11 03:42:09;;;;;;;4.32;1.73;;;;;;;11.68;100.00;98370.94;5092229;28;20038;-46
2023/12/11 03:44:35;;;;;;;7.18;1.30;;;;;;;11.50;100.00;98355.91;5092233;28;20057;-46
2023/12/11 03:47:01;;;;;;;8.80;3.03;;;;;;;11.45;100.00;98363.63;5093410;28;20483;-46
2023/12/11 03:49:27;;;;;;;6.18;1.25;;;;;;;11.49;100.00;98359.53;5092221;28;20032;-46
2023/12/11 03:51:53;;;;;;;6.80;1.20;;;;;;;11.43;100.00;98365.66;5091796;28;20114;-46
2023/12/11 03:54:19;;;;;;;5.85;1.40;;;;;;;11.49;100.00;98367.44;5091992;28;20115;-46
2023/12/11 03:56:44;;;;;;;5.97;1.65;;;;;;;11.57;100.00;98354.06;5093252;28;20035;-46
2023/12/11 03:59:11;;;;;;;5.68;1.27;;;;;;;11.63;100.00;98353.19;5093255;28;20024;-46
2023/12/11 04:01:37;;;;;;;5.85;1.50;;;;;;;11.65;100.00;98355.56;5092045;28;20090;-46
2023/12/11 04:04:03;;;;;;;6.03;1.33;;;;;;;11.55;100.00;98345.53;5093187;28;20024;-46
2023/12/11 04:06:29;;;;;;;5.65;1.10;;;;;;;11.60;100.00;98333.38;5091823;28;20031;-46
2023/12/11 04:08:55;;;;;;;10.40;2.10;;;;;;;11.66;100.00;98341.44;5093054;28;20103;-47
2023/12/11 04:11:20;;;;;;;5.93;1.40;;;;;;;11.79;100.00;98344.75;5091730;28;20077;-46
2023/12/11 04:13:46;;;;;;;5.63;2.17;;;;;;;11.94;100.00;98339.16;5091582;28;20105;-47
2023/12/11 04:16:12;;;;;;;5.75;2.53;;;;;;;12.17;100.00;98335.09;5091562;28;20111;-47
2023/12/11 04:18:38;;;;;;;6.38;1.77;;;;;;;12.19;100.00;98325.97;5091618;28;20026;-47
2023/12/11 04:21:05;;;;;;;4.47;1.30;;;;;;;12.14;100.00;98325.81;5091484;28;20024;-47
2023/12/11 04:23:31;;;;;;;4.72;1.40;;;;;;;12.16;100.00;98341.38;5092806;28;20406;-47
2023/12/11 04:25:58;;;;;;;7.68;1.92;;;;;;;12.28;100.00;98347.53;5093095;28;20347;-47
2023/12/11 04:28:25;;;;;;;5.57;1.80;;;;;;;12.30;100.00;98321.78;5092710;28;20077;-48
2023/12/11 04:30:51;;;;;;;3.10;1.17;;;;;;;12.21;100.00;98338.88;5091305;28;20028;-48
2023/12/11 04:33:17;;;;;;;4.35;2.58;;;;;;;12.13;100.00;98340.00;5092566;28;20020;-48
2023/12/11 04:35:44;;;;;;;4.57;1.25;;;;;;;12.17;100.00;98343.81;5092362;28;20418;-48
2023/12/11 04:38:10;;;;;;;3.25;1.20;;;;;;;12.21;100.00;98349.41;5092614;28;20021;-48
2023/12/11 04:40:35;;;;;;;6.18;1.95;;;;;;;12.28;100.00;98333.56;5092508;28;20036;-49
2023/12/11 04:43:01;;;;;;;6.57;1.52;;;;;;;12.52;100.00;98337.94;5092501;28;20491;-48
2023/12/11 04:45:27;;;;;;;6.05;1.73;;;;;;;12.58;100.00;98349.41;5091104;28;20081;-48
2023/12/11 04:47:53;;;;;;;10.23;3.58;;;;;;;12.49;100.00;98345.47;5091154;28;20486;-47
2023/12/11 04:50:18;;;;;;;13.80;2.00;;;;;;;12.28;100.00;98326.47;5091076;28;20585;-47
2023/12/11 04:52:44;;;;;;;3.83;1.40;;;;;;;12.18;100.00;98328.81;5092304;28;20021;-47
2023/12/11 04:55:10;;;;;;;3.08;1.10;;;;;;;12.11;100.00;98330.69;5092521;28;20027;-47
2023/12/11 04:57:35;;;;;;;9.07;3.53;;;;;;;11.97;100.00;98324.78;5090967;28;20445;-47
2023/12/11 05:00:01;;;;;;;6.55;2.00;;;;;;;11.99;100.00;98323.56;5090875;28;20058;-47
2023/12/11 05:02:26;;;;;;;7.93;3.65;;;;;;;12.09;100.00;98323.06;5091953;28;20024;-48
2023/12/11 05:04:52;;;;;;;6.68;1.60;;;;;;;12.12;100.00;98319.16;5090608;28;20028;-48
2023/12/11 05:07:18;;;;;;;4.47;2.70;;;;;;;12.11;100.00;98307.84;5090746;28;20031;-48
2023/12/11 05:09:43;;;;;;;7.10;2.35;;;;;;;12.18;100.00;98315.66;5092103;28;20042;-47
2023/12/11 05:12:09;;;;;;;6.50;2.92;;;;;;;12.32;100.00;98298.69;5090597;28;20084;-48
2023/12/11 05:14:35;;;;;;;4.70;1.15;;;;;;;12.31;100.00;98297.06;5092236;28;20035;-48
2023/12/11 05:17:00;;;;;;;8.82;4.53;;;;;;;12.48;100.00;98297.28;5091966;28;20041;-48
2023/12/11 05:19:27;;;;;;;4.75;1.83;;;;;;;12.57;100.00;98306.47;5091940;28;20020;-48
2023/12/11 05:21:53;;;;;;;3.17;1.30;;;;;;;12.65;100.00;98281.66;5091877;28;20103;-48
2023/12/11 05:24:18;;;;;;;3.20;1.63;;;;;;;12.67;100.00;98278.81;5090595;28;20040;-48
2023/12/11 05:26:44;;;;;;;4.43;1.30;;;;;;;12.64;100.00;98285.34;5090552;28;20086;-48
2023/12/11 05:29:10;;;;;;;6.30;1.85;;;;;;;12.54;100.00;98299.03;5092066;28;20031;-48
2023/12/11 05:31:36;;;;;;;4.65;1.40;;;;;;;12.63;100.00;98290.81;5090438;28;20027;-48
2023/12/11 05:34:02;;;;;;;2.92;1.20;;;;;;;12.55;100.00;98279.56;5090033;28;20387;-49
2023/12/11 05:36:28;;;;;;;5.03;1.25;;;;;;;12.54;100.00;98288.50;5090506;28;20052;-48
2023/12/11 05:38:53;;;;;;;5.20;1.65;;;;;;;12.63;100.00;98296.09;5091750;28;20036;-48
2023/12/11 05:41:19;;;;;;;2.88;1.40;;;;;;;12.70;100.00;98283.66;5091747;28;20021;-48
2023/12/11 05:43:45;;;;;;;4.13;1.38;;;;;;;12.73;100.00;98291.09;5090467;28;20038;-48
2023/12/11 05:46:10;;;;;;;4.68;1.30;;;;;;;12.71;100.00;98286.03;5091689;28;20066;-48
2023/12/11 05:48:36;;;;;;;5.57;1.25;;;;;;;12.75;100.00;98292.47;5090380;28;20032;-49
2023/12/11 05:51:02;;;;;;;3.30;0.90;;;;;;;13.05;100.00;98304.81;5091612;28;20026;-48
2023/12/11 05:53:28;;;;;;;5.78;1.30;;;;;;;13.22;100.00;98298.88;5091557;28;20099;-48
2023/12/11 05:55:54;;;;;;;4.63;1.30;;;;;;;13.27;100.00;98288.47;5091564;28;20490;-48
2023/12/11 05:58:19;;;;;;;4.38;1.45;;;;;;;13.35;100.00;98281.06;5091613;28;20049;-49
2023/12/11 06:00:45;;;;;;;3.67;1.20;;;;;;;13.40;100.00;98277.75;5090219;28;20031;-48
2023/12/11 06:03:11;;;;;;;1.30;0.80;;;;;;;13.38;100.00;98258.69;5091535;28;20021;-48
2023/12/11 06:05:36;;;;;;;2.97;1.23;;;;;;;13.41;100.00;98260.09;5091500;28;20073;-49
2023/12/11 06:08:03;;;;;;;5.70;2.35;;;;;;;13.43;100.00;98265.94;5091379;28;20462;-49
2023/12/11 06:10:29;;;;;;;6.95;4.22;;;;;;;13.53;100.00;98221.34;5073346;28;20031;-49
2023/12/11 06:12:55;;;;;;;3.00;1.58;;;;;;;13.62;100.00;98262.13;5091418;28;20028;-48
2023/12/11 06:15:21;;;;;;;4.00;1.38;;;;;;;13.61;100.00;98263.19;5092554;28;20027;-48
2023/12/11 06:17:47;;;;;;;5.18;1.20;;;;;;;13.55;100.00;98274.66;5093955;28;20024;-48
2023/12/11 06:20:13;;;;;;;3.67;1.35;;;;;;;13.53;100.00;98255.63;5095121;28;20024;-48
2023/12/11 06:22:39;;;;;;;4.88;1.90;;;;;;;13.48;100.00;98271.31;5093826;28;20028;-48
2023/12/11 06:25:05;;;;;;;3.83;1.52;;;;;;;13.43;100.00;98258.03;5095065;28;20024;-48
2023/12/11 06:27:30;;;;;;;35.03;31.98;;;;;;;13.44;100.00;98257.00;5093839;28;20074;-49
2023/12/11 06:29:56;;;;;;;27.17;24.55;;;;;;;13.38;100.00;98253.44;5095217;28;20485;-48
2023/12/11 06:32:22;;;;;;;61.13;55.15;;;;;;;13.39;100.00;98252.41;5094771;28;20474;-48
2023/12/11 06:34:48;;;;;;;6.03;3.40;;;;;;;13.46;100.00;98260.19;5093356;28;20052;-48
2023/12/11 06:37:14;;;;;;;2.70;1.65;;;;;;;13.50;100.00;98241.06;5094847;28;20506;-48
2023/12/11 06:39:39;;;;;;;8.05;3.03;;;;;;;13.71;100.00;98255.50;5093550;28;20028;-48
2023/12/11 06:42:05;;;;;;;5.25;1.48;;;;;;;13.86;100.00;98259.47;5094757;28;20024;-48
2023/12/11 06:44:31;;;;;;;4.32;1.30;;;;;;;13.87;100.00;98261.91;5094718;28;20031;-48
2023/12/11 06:46:57;;;;;;;6.13;1.95;;;;;;;13.90;100.00;98271.19;5093329;28;20031;-48
2023/12/11 06:49:23;;;;;;;3.05;1.70;;;;;;;14.01;100.00;98257.19;5094640;28;20028;-48
2023/12/11 06:51:49;;;;;;;3.20;1.48;;;;;;;14.03;100.00;98260.38;5094424;28;20418;-48
2023/12/11 06:54:15;;;;;;;4.95;1.70;;;;;;;14.11;100.00;98277.69;5076350;28;20039;-48
2023/12/11 06:56:41;;;;;;;3.85;1.08;;;;;;;14.12;100.00;98260.81;5094481;28;20024;-48
2023/12/11 06:59:07;;;;;;;5.00;1.70;;;;;;;14.05;100.00;98252.25;5094412;28;20024;-49
2023/12/11 07:01:34;;;;;;;7.70;1.15;;;;;;;14.02;98.56;98247.41;5093094;28;20478;-48
2023/12/11 07:04:00;;;;;;;5.95;1.60;;;;;;;13.99;98.67;98270.59;5094393;28;20024;-48
2023/12/11 07:06:26;;;;;;;6.10;1.98;;;;;;;14.01;96.36;98312.59;5092938;28;20016;-48
2023/12/11 07:08:52;;;;;;;3.15;1.85;;;;;;;14.00;96.75;98260.84;5094286;28;20039;-48
2023/12/11 07:11:18;;;;;;;3.90;1.42;;;;;;;13.94;95.72;98262.59;5094248;28;20077;-48
2023/12/11 07:13:44;;;;;;;5.32;1.38;;;;;;;13.92;94.50;98298.94;5092772;28;20036;-48
2023/12/11 07:16:09;;;;;;;5.05;1.45;;;;;;;13.84;95.37;98266.81;5094096;28;20133;-48
2023/12/11 07:18:36;;;;;;;6.65;2.03;;;;;;;13.84;95.30;98285.28;5094604;28;20020;-48
2023/12/11 07:21:02;;;;;;;3.25;1.40;;;;;;;13.90;95.23;98273.81;5075990;28;20428;-48
2023/12/11 07:23:28;;;;;;;6.32;2.00;;;;;;;13.90;96.30;98273.81;5093988;28;20028;-48
2023/12/11 07:25:54;;;;;;;6.63;1.20;;;;;;;13.85;96.00;98292.19;5092049;28;20448;-48
2023/12/11 07:28:21;;;;;;;4.18;1.20;;;;;;;13.84;95.91;98277.38;5093898;28;20464;-48
2023/12/11 07:30:47;;;;;;;2.53;1.00;;;;;;;13.84;94.65;98283.44;5093825;28;20096;-48
2023/12/11 07:33:12;;;;;;;4.20;1.00;;;;;;;13.84;94.44;98306.41;5093740;28;20024;-48
2023/12/11 07:35:38;;;;;;;4.50;1.73;;;;;;;13.87;95.92;98285.63;5092189;28;20058;-48
2023/12/11 07:38:04;;;;;;;2.78;1.40;;;;;;;14.02;95.06;98285.16;5093737;28;20107;-48
2023/12/11 07:40:29;;;;;;;6.50;1.40;;;;;;;14.07;91.66;98327.47;5075588;28;20028;-48
2023/12/11 07:42:55;;;;;;;5.25;1.45;;;;;;;14.05;92.21;98328.75;5092353;28;20428;-48
2023/12/11 07:45:24;;;;;;;4.43;1.50;;;;;;;14.09;91.88;98322.78;5092253;28;20024;-48
2023/12/11 07:47:49;;;;;;;5.07;1.15;;;;;;;14.11;91.64;98310.16;5093522;28;20023;-48
2023/12/11 07:50:15;;;;;;;5.05;1.40;;;;;;;14.13;90.98;98297.53;5093446;28;20036;-48
2023/12/11 07:52:41;;;;;;;4.50;1.38;;;;;;;14.21;90.74;98319.31;5092019;28;20081;-48
2023/12/11 07:55:07;;;;;;;6.35;1.25;;;;;;;14.17;89.36;98316.34;5093343;28;20036;-49
2023/12/11 07:57:33;;;;;;;4.90;1.27;;;;;;;14.07;88.94;98293.19;5093338;28;20077;-48
2023/12/11 07:59:59;;;;;;;4.57;1.08;;;;;;;14.07;89.84;98303.75;5093222;28;20028;-48
2023/12/11 08:02:24;;;;;;;3.55;1.20;;;;;;;14.12;90.81;98295.13;5093200;28;20020;-48
2023/12/11 08:04:50;;;;;;;4.30;1.25;;;;;;;14.19;90.67;98309.78;5093192;28;20031;-48
2023/12/11 08:07:16;;;;;;;3.72;1.25;;;;;;;14.22;88.90;98332.28;5093151;28;20034;-48
2023/12/11 08:09:42;;;;;;;4.70;1.15;;;;;;;14.24;88.06;98332.84;5093092;28;20023;-48
2023/12/11 08:12:08;;;;;;;8.93;2.03;;;;;;;14.25;90.56;98336.31;5092933;28;20043;-48
2023/12/11 08:14:34;;;;;;;8.23;2.85;;;;;;;14.29;91.29;98338.22;5093237;28;20408;-48
2023/12/11 08:17:00;;;;;;;7.32;2.15;;;;;;;14.39;90.79;98335.00;5092944;28;20012;-48
2023/12/11 08:19:26;;;;;;;6.85;1.73;;;;;;;14.50;90.53;98318.31;5092913;28;20024;-48
2023/12/11 08:21:52;;;;;;;3.78;1.35;;;;;;;14.67;91.71;98317.59;5091564;28;20038;-48
2023/12/11 08:24:18;;;;;;;6.68;1.55;;;;;;;14.75;89.43;98314.59;5092816;28;20069;-48
2023/12/11 08:26:44;;;;;;;4.53;1.98;;;;;;;14.74;87.11;98310.34;5074553;28;20027;-48
2023/12/11 08:29:10;;;;;;;5.57;1.00;;;;;;;14.70;86.75;98328.50;5091426;28;20028;-48
2023/12/11 08:31:36;;;;;;;3.53;1.10;;;;;;;14.67;87.13;98347.47;5091398;28;20551;-48
2023/12/11 08:34:02;;;;;;;5.53;1.83;;;;;;;14.64;88.18;98339.22;5074154;28;20020;-50
2023/12/11 08:36:27;;;;;;;4.32;1.40;;;;;;;14.71;87.25;98324.03;5091327;28;20386;-48
2023/12/11 08:38:53;;;;;;;3.72;1.20;;;;;;;14.80;88.26;98333.16;5091736;28;20020;-48
2023/12/11 08:41:19;;;;;;;5.40;1.90;;;;;;;14.86;88.53;98329.56;5091180;28;20027;-48
2023/12/11 08:43:46;;;;;;;5.30;2.90;;;;;;;14.93;87.10;98332.88;5092512;28;20036;-48
2023/12/11 08:46:12;;;;;;;4.97;1.48;;;;;;;14.89;86.71;98333.56;5092321;28;20043;-48
2023/12/11 08:48:38;;;;;;;7.20;2.33;;;;;;;14.86;86.63;98334.84;5092388;28;20023;-48
2023/12/11 08:51:04;;;;;;;5.97;2.17;;;;;;;14.91;87.12;98327.03;5091015;28;20036;-48
2023/12/11 08:53:30;;;;;;;7.47;1.80;;;;;;;14.92;87.43;98315.41;5091041;28;20031;-48
2023/12/11 08:55:56;;;;;;;6.55;1.48;;;;;;;15.02;86.85;98319.28;5092227;28;20478;-48
2023/12/11 08:58:23;;;;;;;3.10;0.90;;;;;;;15.09;86.38;98349.00;5092276;28;20509;-48
2023/12/11 09:00:49;;;;;;;2.58;1.00;;;;;;;15.14;86.20;98331.38;5092424;28;20035;-48
2023/12/11 09:03:15;;;;;;;4.43;1.27;;;;;;;15.28;87.01;98334.53;5090844;28;20032;-48
2023/12/11 09:05:41;;;;;;;3.95;1.35;;;;;;;15.41;85.62;98351.91;5092034;28;20020;-48
2023/12/11 09:08:07;;;;;;;5.93;1.20;;;;;;;15.46;85.24;98345.94;5092136;28;20111;-48
2023/12/11 09:10:34;;;;;;;4.38;1.27;;;;;;;15.48;86.15;98370.28;5092295;28;20375;-48
2023/12/11 09:13:00;;;;;;;4.53;1.40;;;;;;;15.54;85.82;98362.19;5090624;28;20028;-48
2023/12/11 09:15:26;;;;;;;2.78;1.15;;;;;;;15.64;86.04;98364.19;5090706;28;20028;-48
2023/12/11 09:17:51;;;;;;;6.43;1.30;;;;;;;15.68;86.55;98380.41;5090630;28;20198;-49
2023/12/11 09:20:17;;;;;;;4.05;1.60;;;;;;;15.80;86.13;98383.78;5091933;28;20478;-49
2023/12/11 09:22:43;;;;;;;3.22;1.77;;;;;;;15.93;85.70;98372.84;5090663;28;20024;-49
2023/12/11 09:25:09;;;;;;;4.38;1.63;;;;;;;15.97;84.24;98373.16;5091840;28;20032;-48
2023/12/11 09:27:35;;;;;;;5.93;1.52;;;;;;;15.91;83.95;98361.72;5073796;28;20031;-49
2023/12/11 09:30:01;;;;;;;2.50;1.20;;;;;;;15.92;83.49;98350.09;5090628;28;20085;-49
2023/12/11 09:32:28;;;;;;;4.03;1.10;;;;;;;15.93;82.50;98362.25;5091773;28;20470;-48
2023/12/11 09:34:53;;;;;;;1.88;1.00;;;;;;;15.84;82.50;98363.75;5090248;28;20085;-49
2023/12/11 09:37:19;;;;;;;3.85;1.15;;;;;;;15.88;82.22;98370.16;5091847;28;20106;-48
2023/12/11 09:39:47;;;;;;;2.05;1.13;;;;;;;15.92;82.21;98376.56;5090469;28;20119;-48
2023/12/11 09:42:14;;;;;;;3.25;1.45;;;;;;;15.89;81.83;98384.16;5091817;28;20485;-48
2023/12/11 09:44:47;;;;;;;3.95;1.08;;;;;;;15.83;80.62;98379.84;5090572;28;20107;-48
2023/12/11 09:47:26;;;;;;;7.95;2.00;;;;;;;15.83;79.51;98382.50;5090376;28;20024;-49
2023/12/11 09:49:52;;;;;;;3.88;1.75;;;;;;;15.86;81.46;98359.00;5093539;28;20028;-48
2023/12/11 09:52:18;;;;;;;2.90;1.10;;;;;;;16.03;83.56;98366.91;5095654;28;20054;-48
2023/12/11 09:54:44;;;;;;;3.33;1.23;;;;;;;16.17;82.05;98383.25;5094465;28;20111;-49
2023/12/11 09:57:14;;;;;;;4.03;1.30;;;;;;;16.25;80.96;98376.75;5095641;28;20154;-48
2023/12/11 09:59:41;;;;;;;3.80;1.40;;;;;;;16.36;82.61;98375.84;5095862;28;20487;-48
2023/12/11 10:02:12;;;;;;;4.55;1.10;;;;;;;16.52;82.36;98361.72;5094232;28;20354;-48
2023/12/11 10:04:38;;;;;;;6.03;1.45;;;;;;;16.63;79.76;98369.78;5095575;28;20024;-48
2023/12/11 10:07:04;;;;;;;4.55;1.60;;;;;;;16.61;77.79;98372.69;5095438;28;20028;-48
2023/12/11 10:09:33;;;;;;;5.70;2.42;;;;;;;16.72;80.54;98366.47;5095710;28;20097;-48
2023/12/11 10:12:04;;;;;;;5.03;1.33;;;;;;;16.89;80.72;98352.34;5094122;28;20398;-49
2023/12/11 10:14:31;;;;;;;7.47;2.45;;;;;;;17.07;79.88;98352.00;5094069;28;20073;-48
2023/12/11 10:16:57;;;;;;;3.00;1.10;;;;;;;17.15;77.58;98340.94;5077050;28;20022;-48
2023/12/11 10:19:31;;;;;;;10.73;1.60;;;;;;;17.15;78.24;98330.34;5093868;28;20520;-49
2023/12/11 10:21:57;;;;;;;9.45;1.58;;;;;;;17.27;79.60;98351.41;5095075;28;20048;-48
2023/12/11 10:24:23;;;;;;;2.90;0.98;;;;;;;17.32;77.97;98348.78;5095174;28;20109;-49
2023/12/11 10:26:57;;;;;;;2.63;1.17;;;;;;;17.35;77.32;98347.47;5093737;28;20024;-49
2023/12/11 10:29:25;;;;;;;4.03;1.40;;;;;;;17.36;77.26;98347.25;5095124;28;20474;-49
2023/12/11 10:31:53;;;;;;;8.50;1.50;;;;;;;17.33;79.40;98353.03;5093548;28;20025;-48
2023/12/11 10:34:39;;;;;;;4.18;1.42;;;;;;;17.39;78.85;98347.78;5094641;28;20052;-49
2023/12/11 10:37:05;;;;;;;4.93;1.55;;;;;;;17.41;78.30;98349.13;5093542;28;20035;-48
2023/12/11 10:39:31;;;;;;;3.80;1.45;;;;;;;17.44;78.92;98353.91;5094928;28;20386;-48
2023/12/11 10:42:08;;;;;;;5.05;1.48;;;;;;;17.53;81.34;98355.06;5095002;28;20020;-48
2023/12/11 10:44:33;;;;;;;5.75;1.40;;;;;;;17.67;79.83;98363.38;5093795;28;20160;-49
2023/12/11 10:46:59;;;;;;;10.90;1.85;;;;;;;17.75;77.81;98370.09;5094680;28;20107;-48
2023/12/11 10:49:25;;;;;;;12.68;4.40;;;;;;;17.78;78.00;98362.38;5094663;28;20024;-49
2023/12/11 10:51:51;;;;;;;4.20;1.42;;;;;;;17.74;76.80;98349.88;5093269;28;20016;-49
2023/12/11 10:54:18;;;;;;;4.15;1.50;;;;;;;17.77;77.92;98346.75;5093248;28;20035;-49
2023/12/11 10:56:46;;;;;;;3.83;1.30;;;;;;;17.86;76.60;98333.81;5093116;28;20051;-49
2023/12/11 10:59:13;;;;;;;5.25;1.27;;;;;;;17.90;75.21;98330.38;5094511;28;20503;-48
2023/12/11 11:01:42;;;;;;;5.00;0.98;;;;;;;17.85;71.99;98333.03;5093429;28;20081;-49
2023/12/11 11:04:09;;;;;;;3.78;1.38;;;;;;;17.78;74.09;98327.88;5094342;28;20115;-49
2023/12/11 11:07:10;;;;;;;4.47;1.33;;;;;;;17.67;72.25;98328.09;5094359;28;20012;-49
2023/12/11 11:10:06;;;;;;;5.80;2.45;;;;;;;17.67;72.18;98323.59;5074304;28;20135;-49
2023/12/11 11:12:37;;;;;;;4.47;3.70;;;;;;;17.76;71.77;98329.19;5078193;28;20081;-49
2023/12/11 11:15:05;;;;;;;3.97;1.95;;;;;;;17.72;74.99;98325.47;5092778;28;20493;-49
2023/12/11 11:18:05;;;;;;;4.22;1.38;;;;;;;17.76;72.54;98314.06;5094128;28;20024;-49
2023/12/11 11:20:33;;;;;;;2.42;1.25;;;;;;;17.78;74.03;98316.47;5094149;28;20428;-49
2023/12/11 11:23:14;;;;;;;5.28;1.73;;;;;;;17.76;72.42;98305.31;5094041;28;20028;-49
2023/12/11 11:25:40;;;;;;;4.55;1.42;;;;;;;17.75;74.70;98319.66;5094037;28;20020;-49